Time;durP1;ratioP1;P1;durP2;ratioP2;P2;SDS_P1;SDS_P2;PMS_P1;PMS_P2;Temp;Humidity;BMP_temperature;BMP_pressure;BME280_temperature;BME280_humidity;BME280_pressure;Samples;Min_cycle;Max_cycle;Signal;HPM_P1;HPM_P2
2021/12/14 00:01:39;;;;;;;;;;;;;;;0.44;59.20;100745.19;4455471;32;19974;-84
2021/12/14 00:04:05;;;;;;;;;;;;;;;0.30;59.18;100741.44;4442224;32;20023;-85
2021/12/14 00:06:31;;;;;;;;;;;;;;;0.28;59.18;100743.94;4428550;32;19991;-84
2021/12/14 00:08:58;;;;;;;;;;;;;;;0.20;59.18;100744.56;4442021;32;23089;-85
2021/12/14 00:16:43;;;;;;;;;;;;;;;0.50;59.20;100740.22;4443620;32;19995;-85
2021/12/14 00:19:08;;;;;;;;;;;;;;;0.50;59.19;100740.22;4442453;32;19997;-84
2021/12/14 00:21:34;;;;;;;;;;;;;;;0.66;59.22;100738.87;4430917;32;20782;-84
2021/12/14 00:24:08;;;;;;;;;;;;;;;0.41;59.20;100749.37;4451733;32;20016;-85
2021/12/14 00:26:44;;;;;;;;;;;;;;;0.39;59.20;100741.63;4430572;32;19981;-85
2021/12/14 00:29:12;;;;;;;;;;;;;;;0.32;59.19;100752.56;4429817;32;19990;-85
2021/12/14 00:31:38;;;;;;;;;;;;;;;0.36;59.19;100750.94;4429762;32;20047;-84
2021/12/14 00:34:04;;;;;;;;;;;;;;;0.32;59.19;100744.88;4429574;32;20005;-85
2021/12/14 00:36:30;;;;;;;;;;;;;;;0.39;59.20;100754.44;4429536;32;20410;-84
2021/12/14 00:38:57;;;;;;;;;;;;;;;0.42;59.19;100746.84;4429655;32;19973;-85
2021/12/14 00:41:24;;;;;;;;;;;;;;;0.48;59.20;100754.69;4429618;32;19999;-85
2021/12/14 00:43:49;;;;;;;;;;;;;;;0.25;59.19;100746.44;4429349;32;20372;-85
2021/12/14 00:46:14;;;;;;;;;;;;;;;0.33;59.19;100753.44;4442597;32;20555;-84
2021/12/14 00:48:40;;;;;;;;;;;;;;;0.27;59.19;100752.47;4442101;32;21786;-85
2021/12/14 00:51:05;;;;;;;;;;;;;;;0.45;59.20;100757.16;4430725;32;19989;-86
2021/12/14 00:53:30;;;;;;;;;;;;;;;0.51;59.19;100761.59;4434523;32;20350;-86
2021/12/14 00:55:56;;;;;;;;;;;;;;;0.56;59.20;100768.53;4429861;32;19976;-86
2021/12/14 00:58:21;;;;;;;;;;;;;;;0.46;59.20;100764.00;4429408;32;20035;-85
2021/12/14 01:00:58;;;;;;;;;;;;;;;0.33;59.19;100764.53;4429756;32;19977;-86
2021/12/14 01:03:24;;;;;;;;;;;;;;;0.48;59.20;100761.50;4429881;32;19997;-85
2021/12/14 01:05:49;;;;;;;;;;;;;;;0.47;59.20;100763.19;4429286;32;19985;-86
2021/12/14 01:08:16;;;;;;;;;;;;;;;0.57;59.20;100761.72;4442394;32;19995;-85
2021/12/14 01:10:54;;;;;;;;;;;;;;;0.51;59.20;100759.03;4442333;32;19997;-86
2021/12/14 01:13:22;;;;;;;;;;;;;;;0.51;59.20;100762.44;4442487;32;19997;-84
2021/12/14 01:15:53;;;;;;;;;;;;;;;0.57;59.20;100762.59;4429420;32;19970;-85
2021/12/14 01:18:45;;;;;;;;;;;;;;;0.50;59.20;100765.84;4455899;32;20074;-85
2021/12/14 01:23:45;;;;;;;;;;;;;;;0.53;59.21;100775.28;4456116;32;19981;-84
2021/12/14 01:26:12;;;;;;;;;;;;;;;0.54;59.20;100774.47;4432259;32;19981;-85
2021/12/14 01:28:37;;;;;;;;;;;;;;;0.64;59.20;100772.97;4434615;32;20003;-85
2021/12/14 01:31:21;;;;;;;;;;;;;;;0.66;59.21;100773.88;4428826;32;20342;-84
2021/12/14 01:33:48;;;;;;;;;;;;;;;0.54;59.20;100771.91;4441489;32;20334;-83
2021/12/14 01:36:35;;;;;;;;;;;;;;;0.49;59.19;100770.94;4440588;32;20014;-84
2021/12/14 01:41:42;;;;;;;;;;;;;;;0.53;59.21;100762.50;4442454;32;19999;-84
2021/12/14 01:44:07;;;;;;;;;;;;;;;0.23;59.19;100760.88;4440822;32;20319;-85
2021/12/14 01:46:34;;;;;;;;;;;;;;;0.32;59.19;100764.50;4441541;32;20301;-84
2021/12/14 01:49:04;;;;;;;;;;;;;;;0.32;59.19;100770.50;4428045;32;19977;-84
2021/12/14 01:51:30;;;;;;;;;;;;;;;0.24;59.19;100767.75;4428827;32;20033;-83
2021/12/14 01:53:55;;;;;;;;;;;;;;;0.28;59.18;100764.44;4441202;32;19997;-84
2021/12/14 01:56:21;;;;;;;;;;;;;;;0.37;59.19;100761.22;4440867;32;20381;-84
2021/12/14 01:58:48;;;;;;;;;;;;;;;0.33;59.19;100761.97;4428773;32;19973;-84
2021/12/14 02:01:15;;;;;;;;;;;;;;;0.26;59.19;100755.84;4441802;32;20059;-84
2021/12/14 02:04:07;;;;;;;;;;;;;;;0.26;59.19;100755.84;4428824;32;20003;-84
2021/12/14 02:06:32;;;;;;;;;;;;;;;0.33;59.19;100764.53;4453133;32;19999;-84
2021/12/14 02:09:04;;;;;;;;;;;;;;;0.28;59.18;100761.88;4441927;32;20443;-84
2021/12/14 02:11:31;;;;;;;;;;;;;;;0.21;59.18;100765.09;4447138;32;20334;-84
2021/12/14 02:13:56;;;;;;;;;;;;;;;0.24;59.19;100760.06;4428215;32;20049;-84
2021/12/14 02:16:21;;;;;;;;;;;;;;;0.22;59.17;100760.81;4441068;32;19973;-83
2021/12/14 02:18:48;;;;;;;;;;;;;;;0.11;59.18;100755.44;4440896;32;19981;-84
2021/12/14 02:21:13;;;;;;;;;;;;;;;0.25;59.19;100761.81;4440173;32;19997;-82
2021/12/14 02:23:39;;;;;;;;;;;;;;;0.28;59.18;100764.44;4440094;32;20329;-83
2021/12/14 02:26:06;;;;;;;;;;;;;;;0.14;59.18;100755.53;4427370;32;19965;-82
2021/12/14 02:28:31;;;;;;;;;;;;;;;0.19;59.18;100759.06;4426321;32;19989;-83
2021/12/14 02:30:57;;;;;;;;;;;;;;;0.34;59.19;100761.16;4439184;32;20070;-83
2021/12/14 02:33:23;;;;;;;;;;;;;;;0.42;59.19;100763.91;4439339;32;19997;-82
2021/12/14 02:35:48;;;;;;;;;;;;;;;-0.18;59.16;100762.34;4442839;32;20012;-81
2021/12/14 02:38:17;;;;;;;;;;;;;;;-0.15;59.16;100766.69;4441232;32;19992;-83
2021/12/14 02:40:55;;;;;;;;;;;;;;;-0.06;59.17;100772.03;4453499;32;19987;-83
2021/12/14 02:43:21;;;;;;;;;;;;;;;0.01;59.18;100768.84;4440786;32;19996;-82
2021/12/14 02:45:47;;;;;;;;;;;;;;;-0.32;59.15;100759.41;4426341;32;19991;-83
2021/12/14 02:48:12;;;;;;;;;;;;;;;-0.09;59.16;100760.03;4438639;32;27095;-83
2021/12/14 02:50:38;;;;;;;;;;;;;;;-0.09;59.16;100760.03;4439741;32;22026;-84
2021/12/14 02:53:03;;;;;;;;;;;;;;;-0.19;59.16;100764.88;4427221;32;19993;-84
2021/12/14 02:55:28;;;;;;;;;;;;;;;-0.32;59.15;100764.50;4440612;32;19977;-84
2021/12/14 02:57:54;;;;;;;;;;;;;;;-0.10;59.16;100773.66;4439809;32;26269;-84
2021/12/14 03:00:21;;;;;;;;;;;;;;;-0.06;59.17;100769.47;4427681;32;19989;-84
2021/12/14 03:02:46;;;;;;;;;;;;;;;0.02;59.18;100768.00;4427938;32;20008;-84
2021/12/14 03:05:15;;;;;;;;;;;;;;;0.12;59.18;100764.00;4441697;32;20302;-84
2021/12/14 03:07:43;;;;;;;;;;;;;;;0.13;59.18;100763.16;4433116;32;20566;-84
2021/12/14 03:12:44;;;;;;;;;;;;;;;0.19;59.18;100760.75;4442103;32;20026;-84
2021/12/14 03:15:14;;;;;;;;;;;;;;;0.27;59.19;100757.59;4428004;32;20003;-84
2021/12/14 03:17:39;;;;;;;;;;;;;;;-0.01;59.17;100755.97;4427417;32;20056;-83
2021/12/14 03:20:06;;;;;;;;;;;;;;;-0.03;59.17;100757.62;4427542;32;20015;-85
2021/12/14 03:22:39;;;;;;;;;;;;;;;0.06;59.17;100753.59;4427403;32;20015;-84
2021/12/14 03:25:07;;;;;;;;;;;;;;;0.14;59.18;100755.53;4427265;32;19988;-84
2021/12/14 03:27:33;;;;;;;;;;;;;;;0.20;59.18;100755.66;4454212;32;19969;-84
2021/12/14 03:29:58;;;;;;;;;;;;;;;0.09;59.17;100759.66;4427331;32;19995;-84
2021/12/14 03:32:24;;;;;;;;;;;;;;;0.13;59.18;100752.91;4440444;32;19985;-84
2021/12/14 03:34:49;;;;;;;;;;;;;;;0.05;59.17;100756.97;4438942;32;30736;-83
2021/12/14 03:37:15;;;;;;;;;;;;;;;0.14;59.17;100749.53;4426063;32;25490;-83
2021/12/14 03:39:45;;;;;;;;;;;;;;;0.19;59.18;100750.50;4441228;32;20446;-84
2021/12/14 03:42:12;;;;;;;;;;;;;;;0.06;59.17;100746.78;4435485;32;20015;-84
2021/12/14 03:44:40;;;;;;;;;;;;;;;0.14;59.18;100746.97;4442194;32;19949;-84
2021/12/14 03:47:14;;;;;;;;;;;;;;;-0.11;59.17;100748.03;4429530;32;19967;-85
2021/12/14 03:49:42;;;;;;;;;;;;;;;-0.04;59.17;100749.91;4441916;32;20051;-85
2021/12/14 03:52:08;;;;;;;;;;;;;;;-0.02;59.17;100738.87;4442489;32;20024;-85
2021/12/14 03:54:34;;;;;;;;;;;;;;;0.09;59.18;100741.75;4429736;32;19949;-84
2021/12/14 03:56:59;;;;;;;;;;;;;;;0.12;59.18;100740.94;4429971;32;20042;-84
2021/12/14 03:59:31;;;;;;;;;;;;;;;0.16;59.18;100742.75;4429958;32;19999;-84
2021/12/14 04:01:57;;;;;;;;;;;;;;;0.18;59.18;100747.09;4442731;32;20654;-86
2021/12/14 04:04:24;;;;;;;;;;;;;;;-0.01;59.17;100743.16;4430976;32;19993;-85
2021/12/14 04:06:50;;;;;;;;;;;;;;;0.03;59.17;100736.47;4443705;32;19953;-86
2021/12/14 04:09:16;;;;;;;;;;;;;;;0.15;59.17;100739.31;4430693;32;20324;-86
2021/12/14 04:11:41;;;;;;;;;;;;;;;-0.03;59.17;100742.25;4430964;32;20033;-86
2021/12/14 04:14:07;;;;;;;;;;;;;;;-0.11;59.17;100745.47;4429951;32;26376;-85
2021/12/14 04:16:32;;;;;;;;;;;;;;;-0.02;59.17;100745.69;4430433;32;19999;-85
2021/12/14 04:19:04;;;;;;;;;;;;;;;-0.09;59.16;100739.56;4429637;32;20319;-85
2021/12/14 04:21:29;;;;;;;;;;;;;;;-0.07;59.16;100742.16;4431430;32;20005;-86
2021/12/14 04:23:54;;;;;;;;;;;;;;;-0.35;59.15;100745.66;4429758;32;20325;-85
2021/12/14 04:26:19;;;;;;;;;;;;;;;-0.19;59.16;100740.16;4429705;32;28716;-84
2021/12/14 04:28:46;;;;;;;;;;;;;;;-0.50;59.14;100745.22;4443447;32;20030;-85
2021/12/14 04:31:11;;;;;;;;;;;;;;;-0.42;59.15;100747.19;4443028;32;20000;-85
2021/12/14 04:33:38;;;;;;;;;;;;;;;-0.36;59.15;100746.47;4429977;32;20019;-85
2021/12/14 04:36:04;;;;;;;;;;;;;;;-0.32;59.15;100750.84;4430060;32;19989;-86
2021/12/14 04:38:30;;;;;;;;;;;;;;;-0.25;59.15;100749.31;4430079;32;20065;-85
2021/12/14 04:52:00;;;;;;;;;;;;;;;-0.28;59.16;100744.12;4444936;32;19971;-84
2021/12/14 04:54:30;;;;;;;;;;;;;;;-0.19;59.16;100741.84;4430502;32;20002;-83
2021/12/14 04:56:55;;;;;;;;;;;;;;;-0.42;59.15;100746.31;4437433;32;20021;-84
2021/12/14 04:59:23;;;;;;;;;;;;;;;-0.29;59.15;100747.50;4430335;32;20074;-85
2021/12/14 05:01:48;;;;;;;;;;;;;;;-0.31;59.16;100742.34;4430005;32;19996;-85
2021/12/14 05:04:17;;;;;;;;;;;;;;;-0.32;59.16;100749.16;4442763;32;20016;-84
2021/12/14 05:06:52;;;;;;;;;;;;;;;-0.17;59.16;100750.41;4429572;32;19985;-85
2021/12/14 05:09:30;;;;;;;;;;;;;;;-0.42;59.14;100754.84;4430963;32;19961;-84
2021/12/14 05:12:14;;;;;;;;;;;;;;;-0.34;59.15;100747.38;4430356;32;20043;-84
2021/12/14 05:14:40;;;;;;;;;;;;;;;-0.60;59.13;100756.88;4428943;32;20323;-84
2021/12/14 05:17:06;;;;;;;;;;;;;;;-0.51;59.14;100761.38;4429850;32;19981;-87
2021/12/14 05:19:32;;;;;;;;;;;;;;;-0.57;59.14;100761.22;4430413;32;19988;-87
2021/12/14 05:22:03;;;;;;;;;;;;;;;-0.38;59.15;100764.34;4430729;32;20015;-88
2021/12/14 05:24:29;;;;;;;;;;;;;;;-0.57;59.14;100767.19;4443486;32;19973;-86
2021/12/14 05:26:56;;;;;;;;;;;;;;;-0.65;59.14;100782.31;4430869;32;19999;-87
2021/12/14 05:29:22;;;;;;;;;;;;;;;-0.68;59.13;100779.69;4432219;32;20001;-87
2021/12/14 05:31:47;;;;;;;;;;;;;;;-0.68;59.12;100779.69;4431874;32;20038;-86
2021/12/14 05:34:13;;;;;;;;;;;;;;;-0.54;59.14;100766.41;4430516;32;19997;-87
2021/12/14 05:36:41;;;;;;;;;;;;;;;-0.45;59.15;100771.81;4430131;32;20005;-86
2021/12/14 05:39:25;;;;;;;;;;;;;;;-0.51;59.14;100772.47;4430302;32;20044;-87
2021/12/14 05:44:36;;;;;;;;;;;;;;;-0.54;59.13;100774.09;4445114;32;19946;-87
2021/12/14 05:47:03;;;;;;;;;;;;;;;-0.56;59.14;100774.03;4430304;32;20001;-87
2021/12/14 05:49:29;;;;;;;;;;;;;;;-0.47;59.14;100776.03;4430386;32;19985;-87
2021/12/14 05:51:55;;;;;;;;;;;;;;;-0.50;59.14;100778.47;4430413;32;19993;-87
2021/12/14 05:54:28;;;;;;;;;;;;;;;-0.55;59.14;100778.34;4430679;32;20035;-86
2021/12/14 05:56:53;;;;;;;;;;;;;;;-0.47;59.14;100778.56;4430533;32;19957;-86
2021/12/14 05:59:19;;;;;;;;;;;;;;;-0.81;59.12;100785.22;4429951;32;20004;-86
2021/12/14 06:01:44;;;;;;;;;;;;;;;-0.62;59.13;100792.63;4429461;32;19997;-86
2021/12/14 06:04:10;;;;;;;;;;;;;;;-0.51;59.14;100792.06;4428469;32;27785;-87
2021/12/14 06:06:37;;;;;;;;;;;;;;;-0.56;59.14;100784.28;4443084;32;20008;-86
2021/12/14 06:09:10;;;;;;;;;;;;;;;-0.63;59.14;100788.34;4430786;32;20008;-87
2021/12/14 06:11:35;;;;;;;;;;;;;;;-0.57;59.14;100784.22;4429998;32;20005;-87
2021/12/14 06:14:00;;;;;;;;;;;;;;;-0.56;59.14;100786.81;4429956;32;20001;-87
2021/12/14 06:16:29;;;;;;;;;;;;;;;-0.65;59.13;100794.25;4443320;32;19995;-87
2021/12/14 06:18:54;;;;;;;;;;;;;;;-0.77;59.13;100796.41;4443226;32;19958;-87
2021/12/14 06:21:30;;;;;;;;;;;;;;;-0.78;59.13;100792.13;4431084;32;20052;-87
2021/12/14 06:24:05;;;;;;;;;;;;;;;-0.81;59.12;100795.47;4431765;32;20024;-87
2021/12/14 06:26:37;;;;;;;;;;;;;;;-0.79;59.13;100804.03;4439365;32;19956;-86
2021/12/14 06:29:06;;;;;;;;;;;;;;;-0.72;59.12;100805.09;4440231;32;19958;-87
2021/12/14 06:31:31;;;;;;;;;;;;;;;-0.77;59.13;100806.63;4430577;32;20638;-86
2021/12/14 06:33:57;;;;;;;;;;;;;;;-0.75;59.13;100802.44;4429632;32;19989;-87
2021/12/14 06:37:03;;;;;;;;;;;;;;;-0.59;59.13;100791.00;4429478;32;20977;-86
2021/12/14 06:39:29;;;;;;;;;;;;;;;-0.75;59.12;100797.31;4419797;32;19985;-87
2021/12/14 06:42:06;;;;;;;;;;;;;;;-0.87;59.12;100804.62;4429688;32;19989;-87
2021/12/14 06:44:31;;;;;;;;;;;;;;;-0.79;59.13;100798.06;4429892;32;19973;-87
2021/12/14 06:46:57;;;;;;;;;;;;;;;-0.62;59.14;100809.66;4442523;32;19983;-87
2021/12/14 06:49:22;;;;;;;;;;;;;;;-0.67;59.13;100808.66;4429760;32;19989;-87
2021/12/14 06:51:52;;;;;;;;;;;;;;;-0.60;59.13;100808.03;4429565;32;20228;-87
2021/12/14 06:54:22;;;;;;;;;;;;;;;-0.63;59.14;100805.38;4429609;32;19962;-87
2021/12/14 06:56:48;;;;;;;;;;;;;;;-0.64;59.14;100808.75;4429764;32;19969;-87
2021/12/14 06:59:14;;;;;;;;;;;;;;;-0.63;59.14;100808.81;4429819;32;20345;-88
2021/12/14 07:01:53;;;;;;;;;;;;;;;-0.57;59.14;100807.25;4429913;32;20005;-87
2021/12/14 07:04:20;;;;;;;;;;;;;;;-0.37;59.15;100809.56;4429751;32;19993;-87
2021/12/14 07:06:47;;;;;;;;;;;;;;;-0.52;59.14;100816.78;4429945;32;20327;-88
2021/12/14 07:09:18;;;;;;;;;;;;;;;-0.48;59.14;100821.16;4429493;32;19993;-87
2021/12/14 07:11:47;;;;;;;;;;;;;;;-0.44;59.14;100819.59;4442291;32;20014;-87
2021/12/14 07:14:22;;;;;;;;;;;;;;;-0.38;59.15;100819.75;4429690;32;19988;-87
2021/12/14 07:16:47;;;;;;;;;;;;;;;-0.38;59.14;100823.19;4431535;32;20360;-87
2021/12/14 07:19:13;;;;;;;;;;;;;;;-0.27;59.16;100815.81;4431064;32;19989;-87
2021/12/14 07:21:42;;;;;;;;;;;;;;;-0.17;59.16;100824.63;4430731;32;20557;-86
2021/12/14 07:24:26;;;;;;;;;;;;;;;-0.15;59.16;100826.41;4430440;32;20023;-86
2021/12/14 07:27:11;;;;;;;;;;;;;;;-0.15;59.16;100828.09;4431335;32;19999;-87
2021/12/14 07:29:37;;;;;;;;;;;;;;;-0.02;59.17;100831.03;4444073;32;19993;-87
2021/12/14 07:32:02;;;;;;;;;;;;;;;-0.02;59.17;100838.69;4431258;32;20003;-88
2021/12/14 07:34:27;;;;;;;;;;;;;;;0.12;59.18;100835.66;4431639;32;20022;-87
2021/12/14 07:36:53;;;;;;;;;;;;;;;0.21;59.18;100825.66;4431607;32;20003;-87
2021/12/14 07:39:18;;;;;;;;;;;;;;;0.32;59.19;100825.97;4430311;32;19989;-87
2021/12/14 07:41:52;;;;;;;;;;;;;;;0.33;59.19;100828.56;4430038;32;19997;-87
2021/12/14 07:44:24;;;;;;;;;;;;;;;0.39;59.20;100828.72;4431054;32;20261;-87
2021/12/14 07:46:52;;;;;;;;;;;;;;;0.47;59.20;100827.22;4431335;32;20005;-87
2021/12/14 07:49:22;;;;;;;;;;;;;;;0.59;59.21;100819.00;4443818;32;19988;-88
2021/12/14 07:51:48;;;;;;;;;;;;;;;0.82;59.22;100809.31;4431023;32;19996;-87
2021/12/14 07:54:14;;;;;;;;;;;;;;;0.94;59.22;100809.59;4430898;32;19984;-87
2021/12/14 07:56:45;;;;;;;;;;;;;;;0.99;59.23;100814.84;4431078;32;20338;-87
2021/12/14 07:59:21;;;;;;;;;;;;;;;1.12;59.24;100819.41;4431391;32;20372;-87
2021/12/14 08:01:47;;;;;;;;;;;;;;;0.87;59.22;100811.16;4431090;32;20001;-87
2021/12/14 08:04:12;;;;;;;;;;;;;;;1.11;59.23;100805.72;4430783;32;20306;-87
2021/12/14 08:06:41;;;;;;;;;;;;;;;1.15;59.24;100815.22;4430797;32;20004;-85
2021/12/14 08:09:07;;;;;;;;;;;;;;;1.21;59.24;100817.09;4431118;32;19989;-86
2021/12/14 08:14:05;;;;;;;;;;;;;;;1.29;59.24;100818.12;4444212;32;19980;-86
2021/12/14 08:16:40;;;;;;;;;;;;;;;1.22;59.24;100812.00;4430745;32;19973;-87
2021/12/14 08:19:06;;;;;;;;;;;;;;;1.31;59.24;100826.72;4430826;32;19985;-87
2021/12/14 08:21:31;;;;;;;;;;;;;;;1.32;59.24;100818.19;4430791;32;20047;-86
2021/12/14 08:24:01;;;;;;;;;;;;;;;1.42;59.26;100815.00;4443496;32;21980;-87
2021/12/14 08:26:31;;;;;;;;;;;;;;;1.38;59.25;100805.47;4430478;32;19981;-85
2021/12/14 08:28:57;;;;;;;;;;;;;;;1.34;59.25;100808.81;4431337;32;20012;-86
2021/12/14 08:31:24;;;;;;;;;;;;;;;1.49;59.26;100814.28;4432362;32;19989;-89
2021/12/14 08:33:54;;;;;;;;;;;;;;;1.56;59.27;100806.72;4433041;32;19973;-88
2021/12/14 08:36:20;;;;;;;;;;;;;;;1.60;59.26;100817.06;4441622;32;19961;-89
2021/12/14 08:38:45;;;;;;;;;;;;;;;1.81;59.27;100824.34;4440122;32;20007;-87
2021/12/14 08:41:15;;;;;;;;;;;;;;;1.89;59.27;100809.97;4430984;32;20023;-87
2021/12/14 08:43:47;;;;;;;;;;;;;;;1.91;59.28;100815.16;4431472;32;19993;-86
2021/12/14 08:46:14;;;;;;;;;;;;;;;2.14;59.30;100813.91;4431298;32;20401;-86
2021/12/14 08:48:46;;;;;;;;;;;;;;;2.31;59.30;100817.63;4428138;32;20051;-86
2021/12/14 08:51:15;;;;;;;;;;;;;;;2.37;59.31;100816.91;4429459;32;19976;-87
2021/12/14 08:53:45;;;;;;;;;;;;;;;2.35;59.30;100818.56;4442435;32;19987;-87
2021/12/14 08:56:11;;;;;;;;;;;;;;;2.31;59.30;100817.63;4429866;32;19993;-84
2021/12/14 08:58:36;;;;;;;;;;;;;;;2.36;59.31;100820.28;4442669;32;19995;-85
2021/12/14 09:01:07;;;;;;;;;;;;;;;2.51;59.32;100814.56;4429663;32;20008;-86
2021/12/14 09:03:34;;;;;;;;;;;;;;;2.57;59.31;100812.97;4429592;32;20007;-84
2021/12/14 09:06:01;;;;;;;;;;;;;;;2.64;59.33;100812.25;4429546;32;20568;-87
2021/12/14 09:08:26;;;;;;;;;;;;;;;2.83;59.33;100818.53;4430117;32;19981;-86
2021/12/14 09:10:52;;;;;;;;;;;;;;;2.77;59.33;100808.16;4429335;32;21117;-86
2021/12/14 09:13:17;;;;;;;;;;;;;;;2.97;59.34;100803.34;4429828;32;19977;-86
2021/12/14 09:15:43;;;;;;;;;;;;;;;3.07;59.34;100803.50;4428996;32;20078;-84
2021/12/14 09:18:08;;;;;;;;;;;;;;;3.24;59.35;100805.47;4442065;32;20071;-86
2021/12/14 09:20:34;;;;;;;;;;;;;;;3.28;59.36;100805.53;4428344;32;19993;-86
2021/12/14 09:23:01;;;;;;;;;;;;;;;3.39;59.37;100798.84;4428332;32;19989;-85
2021/12/14 09:25:28;;;;;;;;;;;;;;;3.26;59.36;100794.34;4429356;32;20024;-85
2021/12/14 09:27:53;;;;;;;;;;;;;;;3.55;59.37;100799.91;4441690;32;20357;-86
2021/12/14 09:30:19;;;;;;;;;;;;;;;3.58;59.37;100796.50;4429058;32;19993;-85
2021/12/14 09:32:44;;;;;;;;;;;;;;;3.86;59.39;100797.72;4428562;32;20253;-85
2021/12/14 09:35:13;;;;;;;;;;;;;;;3.95;59.39;100790.94;4441677;32;20031;-85
2021/12/14 09:37:38;;;;;;;;;;;;;;;4.01;59.40;100798.72;4429144;32;20044;-85
2021/12/14 09:40:14;;;;;;;;;;;;;;;4.31;59.41;100787.91;4428590;32;19989;-85
2021/12/14 09:42:39;;;;;;;;;;;;;;;4.39;59.42;100785.41;4429554;32;19995;-84
2021/12/14 09:45:07;;;;;;;;;;;;;;;4.40;59.42;100781.97;4429307;32;19981;-83
2021/12/14 09:47:32;;;;;;;;;;;;;;;4.38;59.42;100780.22;4441640;32;19980;-85
2021/12/14 09:49:58;;;;;;;;;;;;;;;4.63;59.43;100779.59;4428400;32;19992;-85
2021/12/14 09:52:25;;;;;;;;;;;;;;;4.61;59.43;100774.44;4428587;32;20325;-84
2021/12/14 09:54:50;;;;;;;;;;;;;;;4.68;59.44;100771.91;4428920;32;20581;-85
2021/12/14 09:57:20;;;;;;;;;;;;;;;4.97;59.45;100769.53;4429114;32;20037;-85
2021/12/14 09:59:45;;;;;;;;;;;;;;;4.96;59.46;100765.22;4429138;32;20001;-86
2021/12/14 10:02:15;;;;;;;;;;;;;;;5.07;59.46;100761.88;4429115;32;20259;-85
2021/12/14 10:04:45;;;;;;;;;;;;;;;5.12;59.46;100759.31;4428889;32;20041;-85
2021/12/14 10:07:11;;;;;;;;;;;;;;;5.31;59.46;100765.47;4429284;32;20579;-86
2021/12/14 10:09:41;;;;;;;;;;;;;;;5.50;59.48;100762.13;4429685;32;19985;-86
2021/12/14 10:12:49;;;;;;;;;;;;;;;5.53;59.49;100755.25;4429707;32;19967;-86
2021/12/14 10:15:01;;;;;;;;;;;;;;;5.56;59.49;100751.81;4453503;32;19969;-86
2021/12/14 10:17:26;;;;;;;;;;;;;;;5.51;59.48;100756.97;4429177;32;20000;-86
2021/12/14 10:19:51;;;;;;;;;;;;;;;5.71;59.50;100751.91;4428641;32;20036;-86
2021/12/14 10:22:21;;;;;;;;;;;;;;;5.81;59.49;100742.44;4428733;32;20025;-85
2021/12/14 10:24:47;;;;;;;;;;;;;;;5.84;59.51;100743.31;4429159;32;19977;-86
2021/12/14 10:27:13;;;;;;;;;;;;;;;6.01;59.51;100739.94;4428928;32;19989;-86
2021/12/14 10:29:38;;;;;;;;;;;;;;;6.01;59.51;100733.06;4429051;32;19989;-86
2021/12/14 10:32:08;;;;;;;;;;;;;;;6.12;59.51;100733.94;4428789;32;20010;-85
2021/12/14 10:34:38;;;;;;;;;;;;;;;6.02;59.51;100737.38;4428747;32;20016;-85
2021/12/14 10:37:10;;;;;;;;;;;;;;;5.91;59.51;100739.06;4428070;32;20606;-83
2021/12/14 10:39:41;;;;;;;;;;;;;;;6.08;59.52;100736.50;4428718;32;20356;-85
2021/12/14 10:44:55;;;;;;;;;;;;;;;6.26;59.52;100744.31;4443472;32;20651;-85
2021/12/14 10:47:21;;;;;;;;;;;;;;;6.37;59.53;100737.41;4428018;32;19989;-84
2021/12/14 10:49:46;;;;;;;;;;;;;;;6.40;59.53;100741.75;4440655;32;20007;-85
2021/12/14 10:52:14;;;;;;;;;;;;;;;6.57;59.53;100741.75;4428275;32;20037;-86
2021/12/14 10:54:40;;;;;;;;;;;;;;;6.47;59.54;100731.41;4428123;32;19984;-85
2021/12/14 10:57:06;;;;;;;;;;;;;;;6.53;59.54;100730.53;4428158;32;20041;-86
2021/12/14 10:59:32;;;;;;;;;;;;;;;6.59;59.55;100732.25;4428246;32;20032;-84
2021/12/14 11:01:58;;;;;;;;;;;;;;;6.75;59.55;100732.25;4455827;32;19987;-84
2021/12/14 11:04:26;;;;;;;;;;;;;;;6.73;59.56;100733.13;4435170;32;19977;-85
2021/12/14 11:06:52;;;;;;;;;;;;;;;6.65;59.54;100740.03;4435551;32;20020;-85
2021/12/14 11:12:07;;;;;;;;;;;;;;;6.63;59.54;100729.69;4443156;32;19964;-86
2021/12/14 11:14:34;;;;;;;;;;;;;;;6.71;59.55;100732.25;4428954;32;20004;-87
2021/12/14 11:19:52;;;;;;;;;;;;;;;6.70;59.55;100726.22;4443493;32;20054;-87
2021/12/14 11:22:28;;;;;;;;;;;;;;;6.65;59.54;100724.50;4428499;32;19978;-87
2021/12/14 11:25:04;;;;;;;;;;;;;;;6.59;59.55;100727.06;4427748;32;19981;-85
2021/12/14 11:27:30;;;;;;;;;;;;;;;6.61;59.55;100722.75;4427288;32;19993;-85
2021/12/14 11:30:08;;;;;;;;;;;;;;;6.72;59.55;100721.03;4427711;32;20007;-86
2021/12/14 11:32:33;;;;;;;;;;;;;;;6.69;59.55;100731.41;4427665;32;19973;-87
2021/12/14 11:35:01;;;;;;;;;;;;;;;6.69;59.55;100728.81;4427472;32;20055;-86
2021/12/14 11:37:33;;;;;;;;;;;;;;;6.74;59.56;100719.31;4428411;32;19969;-87
2021/12/14 11:39:59;;;;;;;;;;;;;;;6.69;59.55;100728.81;4428788;32;20969;-87
2021/12/14 11:42:24;;;;;;;;;;;;;;;6.75;59.55;100724.50;4428429;32;19981;-87
2021/12/14 11:44:54;;;;;;;;;;;;;;;6.58;59.55;100717.59;4428463;32;19997;-87
2021/12/14 11:49:53;;;;;;;;;;;;;;;6.81;59.56;100720.16;4451058;32;20686;-84
2021/12/14 11:52:53;;;;;;;;;;;;;;;6.92;59.56;100714.13;4425241;32;19977;-85
2021/12/14 11:55:19;;;;;;;;;;;;;;;6.97;59.56;100706.34;4413359;32;20056;-86
2021/12/14 11:57:44;;;;;;;;;;;;;;;6.97;59.57;100717.56;4453196;32;20377;-85
2021/12/14 12:00:11;;;;;;;;;;;;;;;6.93;59.56;100714.97;4426766;32;19989;-85
2021/12/14 12:02:37;;;;;;;;;;;;;;;6.98;59.57;100708.06;4427523;32;20641;-86
2021/12/14 12:05:21;;;;;;;;;;;;;;;7.08;59.57;100702.00;4428106;32;19968;-85
2021/12/14 12:10:47;;;;;;;;;;;;;;;7.00;59.56;100707.19;4442724;32;20620;-85
2021/12/14 12:13:13;;;;;;;;;;;;;;;7.18;59.59;100706.28;4442519;32;19969;-84
2021/12/14 12:15:40;;;;;;;;;;;;;;;6.93;59.56;100708.09;4428033;32;20057;-86
2021/12/14 12:18:05;;;;;;;;;;;;;;;6.92;59.56;100700.31;4455318;32;20037;-85
2021/12/14 12:20:30;;;;;;;;;;;;;;;7.25;59.59;100694.19;4441568;32;20032;-86
2021/12/14 12:22:59;;;;;;;;;;;;;;;7.16;59.57;100702.84;4441072;32;20003;-86
2021/12/14 12:25:24;;;;;;;;;;;;;;;7.42;59.59;100701.91;4440877;32;20032;-87
2021/12/14 12:27:51;;;;;;;;;;;;;;;7.44;59.59;100697.56;4440873;32;20290;-85
2021/12/14 12:33:18;;;;;;;;;;;;;;;7.61;59.59;100694.03;4434792;32;19985;-86
2021/12/14 12:35:49;;;;;;;;;;;;;;;7.51;59.60;100689.75;4441189;32;19996;-85
2021/12/14 12:38:25;;;;;;;;;;;;;;;7.52;59.59;100686.28;4440987;32;19977;-85
2021/12/14 12:40:56;;;;;;;;;;;;;;;7.43;59.59;100695.84;4428464;32;19972;-85
2021/12/14 12:43:29;;;;;;;;;;;;;;;7.57;59.60;100702.72;4441390;32;20029;-86
2021/12/14 12:46:02;;;;;;;;;;;;;;;7.74;59.61;100696.56;4428490;32;20402;-86
2021/12/14 12:48:46;;;;;;;;;;;;;;;7.83;59.61;100694.78;4428309;32;20004;-87
2021/12/14 12:51:11;;;;;;;;;;;;;;;7.86;59.61;100696.50;4455384;32;19985;-87
2021/12/14 12:53:36;;;;;;;;;;;;;;;7.78;59.61;100698.25;4428717;32;19989;-87
2021/12/14 12:56:08;;;;;;;;;;;;;;;7.87;59.62;100693.91;4428188;32;25271;-86
2021/12/14 12:58:34;;;;;;;;;;;;;;;7.83;59.61;100688.75;4428683;32;19989;-86
2021/12/14 13:01:00;;;;;;;;;;;;;;;7.97;59.61;100684.31;4441304;32;20003;-86
2021/12/14 13:03:29;;;;;;;;;;;;;;;7.84;59.62;100686.16;4441738;32;20029;-86
2021/12/14 13:06:03;;;;;;;;;;;;;;;7.73;59.61;100682.75;4430198;32;19991;-87
2021/12/14 13:08:29;;;;;;;;;;;;;;;7.72;59.61;100687.94;4438090;32;19981;-87
2021/12/14 13:10:55;;;;;;;;;;;;;;;7.84;59.62;100685.28;4460030;32;19981;-87
2021/12/14 13:13:30;;;;;;;;;;;;;;;7.93;59.62;100690.41;4455126;32;19983;-86
2021/12/14 13:16:00;;;;;;;;;;;;;;;7.90;59.61;100700.78;4428519;32;20005;-86
2021/12/14 13:18:35;;;;;;;;;;;;;;;7.76;59.61;100697.41;4428504;32;20040;-85
2021/12/14 13:21:09;;;;;;;;;;;;;;;7.86;59.62;100696.50;4441419;32;20008;-86
2021/12/14 13:23:38;;;;;;;;;;;;;;;7.89;59.62;100696.47;4441102;32;19969;-86
2021/12/14 13:26:22;;;;;;;;;;;;;;;7.75;59.61;100696.53;4428018;32;19985;-87
2021/12/14 13:28:48;;;;;;;;;;;;;;;7.38;59.59;100690.69;4441795;32;19976;-86
2021/12/14 13:31:32;;;;;;;;;;;;;;;7.37;59.59;100704.50;4428895;32;20490;-86
2021/12/14 13:33:57;;;;;;;;;;;;;;;7.24;59.57;100700.22;4455285;32;20040;-86
2021/12/14 13:36:23;;;;;;;;;;;;;;;7.05;59.57;100699.41;4428893;32;19997;-85